createdAt,value
2022-10-29T00:01:58.324Z,2.00
2022-10-29T00:07:01.033Z,2.60
2022-10-29T00:12:05.279Z,1.60
2022-10-29T00:17:07.905Z,2.00
2022-10-29T00:22:10.991Z,1.60
2022-10-29T00:27:15.363Z,2.00
2022-10-29T00:32:18.224Z,2.20
2022-10-29T00:37:20.970Z,1.60
2022-10-29T00:42:25.839Z,2.00
2022-10-29T00:47:29.035Z,1.40
2022-10-29T00:52:32.918Z,2.00
2022-10-29T00:57:38.025Z,1.60
2022-10-29T01:02:40.779Z,2.00
2022-10-29T01:07:43.593Z,2.00
2022-10-29T01:13:08.403Z,1.80
2022-10-29T01:18:15.115Z,1.80
2022-10-29T01:23:30.160Z,1.60
2022-10-29T01:28:39.919Z,1.20
2022-10-29T01:33:47.032Z,2.00
2022-10-29T01:38:52.545Z,1.40
2022-10-29T01:43:56.906Z,1.00
2022-10-29T01:49:03.624Z,1.40
2022-10-29T01:54:08.277Z,1.60
2022-10-29T01:59:18.386Z,2.00
2022-10-29T02:04:44.802Z,1.80
2022-10-29T02:09:50.346Z,1.60
2022-10-29T02:14:53.704Z,2.00
2022-10-29T02:19:57.768Z,1.60
2022-10-29T02:25:00.428Z,2.00
2022-10-29T02:30:03.364Z,2.00
2022-10-29T02:35:08.254Z,1.00
2022-10-29T02:40:11.953Z,2.00
2022-10-29T02:45:14.650Z,2.60
2022-10-29T02:50:18.679Z,2.00
2022-10-29T02:55:21.350Z,2.00
2022-10-29T03:00:24.029Z,2.00
2022-10-29T03:05:28.063Z,1.00
2022-10-29T03:10:30.688Z,1.00
2022-10-29T03:15:33.373Z,1.00
2022-10-29T03:20:37.512Z,2.00
2022-10-29T03:25:40.153Z,1.00
2022-10-29T03:30:43.066Z,2.00
2022-10-29T03:35:47.149Z,1.00
2022-10-29T03:40:49.870Z,1.00
2022-10-29T03:45:52.582Z,1.20
2022-10-29T03:50:57.313Z,1.00
2022-10-29T03:55:59.964Z,1.00
2022-10-29T04:01:03.461Z,1.40
2022-10-29T04:06:11.896Z,2.00
2022-10-29T04:11:14.802Z,1.00
2022-10-29T04:16:17.457Z,1.20
2022-10-29T04:32:07.345Z,1.00
2022-10-29T04:37:11.327Z,1.00
2022-10-29T04:42:13.973Z,1.00
2022-10-29T04:47:16.666Z,2.00
2022-10-29T04:52:20.730Z,1.00
2022-10-29T04:57:23.502Z,1.00
2022-10-29T05:02:26.175Z,1.00
2022-10-29T05:07:30.176Z,1.00
2022-10-29T05:12:33.068Z,1.00
2022-10-29T05:17:37.615Z,1.00
2022-10-29T05:22:41.652Z,1.00
2022-10-29T05:27:44.273Z,0.80
2022-10-29T05:32:46.929Z,1.00
2022-10-29T05:37:53.107Z,1.00
2022-10-29T05:42:56.278Z,1.00
2022-10-29T05:47:59.260Z,1.00
2022-10-29T05:53:04.217Z,1.00
2022-10-29T05:58:07.986Z,1.00
2022-10-29T06:03:13.292Z,2.00
2022-10-29T06:08:17.674Z,1.00
2022-10-29T06:13:21.197Z,0.00
2022-10-29T06:18:24.138Z,1.00
2022-10-29T06:23:28.229Z,1.00
2022-10-29T06:28:33.759Z,0.60
2022-10-29T06:33:37.598Z,1.00
2022-10-29T06:38:41.579Z,1.00
2022-10-29T06:43:44.287Z,0.40
2022-10-29T06:48:46.957Z,1.00
2022-10-29T06:53:51.089Z,0.40
2022-10-29T06:58:53.760Z,8.40
2022-10-29T07:03:56.452Z,8.40
2022-10-29T07:09:00.437Z,8.20
2022-10-29T07:14:05.796Z,11.60
2022-10-29T07:19:08.615Z,25.25
2022-10-29T07:24:12.640Z,11.00
2022-10-29T07:29:15.338Z,7.40
2022-10-29T07:34:18.020Z,9.20
2022-10-29T07:39:22.680Z,30.00
2022-10-29T07:44:25.494Z,17.75
2022-10-29T07:49:28.158Z,9.00
2022-10-29T07:54:32.269Z,10.60
2022-10-29T07:59:34.954Z,7.80
2022-10-29T08:04:37.637Z,10.00
2022-10-29T08:09:41.798Z,8.00
2022-10-29T08:14:44.455Z,8.20
2022-10-29T08:19:47.147Z,8.00
2022-10-29T08:24:51.236Z,8.80
2022-10-29T08:29:53.950Z,10.00
2022-10-29T08:34:56.685Z,8.00
2022-10-29T08:40:00.709Z,13.80
2022-10-29T08:45:17.332Z,11.60
2022-10-29T08:50:23.158Z,15.00
2022-10-29T08:55:29.717Z,7.00
2022-10-29T09:00:33.899Z,13.60
2022-10-29T09:05:39.950Z,11.00
2022-10-29T09:10:45.522Z,8.80
2022-10-29T09:15:57.992Z,6.40
2022-10-29T09:21:05.176Z,8.80
2022-10-29T09:26:12.513Z,12.60
2022-10-29T09:31:21.388Z,7.20
2022-10-29T09:36:24.494Z,11.80
2022-10-29T09:41:32.708Z,7.00
2022-10-29T09:46:38.314Z,14.00
2022-10-29T09:51:43.563Z,7.80
2022-10-29T09:56:51.826Z,8.00
2022-10-29T10:01:58.859Z,8.80
2022-10-29T10:07:03.413Z,6.00
2022-10-29T10:12:07.687Z,7.00
2022-10-29T10:17:10.451Z,7.80
2022-10-29T10:22:19.607Z,7.00
2022-10-29T10:27:30.153Z,7.00
2022-10-29T10:32:32.794Z,8.60
2022-10-29T10:37:35.580Z,7.00
2022-10-29T10:42:42.767Z,9.20
2022-10-29T10:47:48.424Z,27.75
2022-10-29T10:52:51.257Z,24.50
2022-10-29T10:57:58.048Z,19.25
2022-10-29T11:03:02.274Z,18.60
2022-10-29T11:08:06.453Z,29.33
2022-10-29T11:13:13.527Z,12.00
2022-10-29T11:18:19.169Z,11.00
2022-10-29T11:23:27.366Z,9.80
2022-10-29T11:28:34.316Z,7.20
2022-10-29T11:33:38.661Z,7.40
2022-10-29T11:38:42.531Z,7.00
2022-10-29T11:43:47.684Z,8.00
2022-10-29T11:48:53.990Z,7.00
2022-10-29T11:54:01.565Z,7.00
2022-10-29T11:59:07.731Z,7.00
2022-10-29T12:04:21.345Z,7.00
2022-10-29T12:09:53.249Z,7.00
2022-10-29T12:14:59.055Z,7.00
2022-10-29T12:20:03.289Z,7.80
2022-10-29T12:25:16.320Z,7.00
2022-10-29T12:30:20.453Z,6.00
2022-10-29T12:35:25.683Z,7.60
2022-10-29T12:40:30.024Z,7.00
2022-10-29T12:45:39.916Z,6.00
2022-10-29T12:50:59.310Z,6.40
2022-10-29T12:56:01.961Z,6.00
2022-10-29T13:01:06.275Z,6.00
2022-10-29T13:06:42.224Z,7.00
2022-10-29T13:11:48.820Z,7.00
2022-10-29T13:16:53.106Z,6.00
2022-10-29T13:22:03.232Z,6.20
2022-10-29T13:27:32.634Z,6.00
2022-10-29T13:32:37.207Z,6.40
2022-10-29T13:38:04.593Z,6.20
2022-10-29T13:43:12.224Z,6.20
2022-10-29T13:48:20.549Z,4.80
2022-10-29T13:53:26.108Z,6.00
2022-10-29T13:58:30.100Z,6.00
2022-10-29T14:03:36.765Z,6.40
2022-10-29T14:08:41.844Z,5.20
2022-10-29T14:13:45.611Z,4.00
2022-10-29T14:18:51.168Z,6.60
2022-10-29T14:23:58.176Z,6.00
2022-10-29T14:29:14.058Z,6.20
2022-10-29T14:34:26.074Z,6.00
2022-10-29T14:39:36.940Z,6.00
2022-10-29T14:44:47.972Z,6.00
2022-10-29T14:49:52.033Z,4.00
2022-10-29T14:54:55.768Z,6.40
2022-10-29T14:59:59.622Z,6.00
2022-10-29T15:05:07.454Z,7.00
2022-10-29T15:10:21.434Z,6.00
2022-10-29T15:15:26.133Z,6.00
2022-10-29T15:20:32.883Z,14.60
2022-10-29T15:25:37.073Z,11.00
2022-10-29T15:30:39.854Z,13.00
2022-10-29T15:35:46.565Z,15.20
2022-10-29T15:40:50.012Z,9.00
2022-10-29T15:45:56.932Z,12.20
2022-10-29T15:51:01.034Z,9.00
2022-10-29T15:56:04.812Z,9.00
2022-10-29T16:01:08.209Z,10.00
2022-10-29T16:06:12.467Z,11.20
2022-10-29T16:11:15.871Z,12.00
2022-10-29T16:16:19.207Z,12.00
2022-10-29T16:21:24.564Z,11.20
2022-10-29T16:26:27.221Z,13.00
2022-10-29T16:31:30.028Z,12.80
2022-10-29T16:36:34.194Z,13.60
2022-10-29T16:41:37.177Z,17.40
2022-10-29T16:46:39.966Z,16.80
2022-10-29T16:51:44.089Z,18.00
2022-10-29T16:56:47.450Z,17.00
2022-10-29T17:01:50.194Z,17.40
2022-10-29T17:06:54.617Z,18.00
2022-10-29T17:11:57.594Z,15.60
2022-10-29T17:17:01.668Z,17.60
2022-10-29T17:22:05.713Z,16.60
2022-10-29T17:27:08.407Z,16.60
2022-10-29T17:32:11.046Z,16.00
2022-10-29T17:37:15.086Z,16.80
2022-10-29T17:42:17.786Z,15.20
2022-10-29T17:47:21.696Z,14.00
2022-10-29T17:52:25.811Z,15.80
2022-10-29T17:57:28.549Z,14.80
2022-10-29T18:02:31.231Z,14.00
2022-10-29T18:07:35.307Z,15.00
2022-10-29T18:12:38.099Z,14.60
2022-10-29T18:17:41.388Z,14.20
2022-10-29T18:22:45.530Z,15.00
2022-10-29T18:27:48.265Z,14.60
2022-10-29T18:32:51.007Z,14.20
2022-10-29T18:37:55.464Z,15.00
2022-10-29T18:42:58.341Z,13.80
2022-10-29T18:48:01.492Z,15.00
2022-10-29T18:53:06.014Z,14.00
2022-10-29T18:58:08.782Z,15.00
2022-10-29T19:03:11.675Z,14.80
2022-10-29T19:08:15.798Z,14.40
2022-10-29T19:13:18.494Z,14.20
2022-10-29T19:18:21.193Z,14.00
2022-10-29T19:23:25.260Z,13.20
2022-10-29T19:28:28.144Z,13.60
2022-10-29T19:33:30.824Z,14.20
2022-10-29T19:38:34.942Z,14.00
2022-10-29T19:43:37.567Z,13.60
2022-10-29T19:48:40.376Z,13.80
2022-10-29T19:53:44.536Z,13.60
2022-10-29T19:58:47.161Z,13.60
2022-10-29T20:03:49.926Z,11.00
2022-10-29T20:08:53.946Z,13.20
2022-10-29T20:13:56.880Z,12.80
2022-10-29T20:18:59.549Z,11.20
2022-10-29T20:24:03.590Z,12.80
2022-10-29T20:29:06.553Z,10.60
2022-10-29T20:34:09.620Z,10.00
2022-10-29T20:39:14.308Z,12.40
2022-10-29T20:44:17.103Z,11.00
2022-10-29T20:49:19.772Z,10.40
2022-10-29T20:54:23.757Z,11.00
2022-10-29T20:59:26.441Z,11.80
2022-10-29T21:04:29.092Z,10.60
2022-10-29T21:09:33.189Z,11.80
2022-10-29T21:14:36.440Z,10.80
2022-10-29T21:19:39.180Z,10.00
2022-10-29T21:24:45.561Z,9.80
2022-10-29T21:29:48.538Z,12.40
2022-10-29T21:34:51.729Z,10.20
2022-10-29T21:39:55.743Z,11.00
2022-10-29T21:44:58.782Z,10.00
2022-10-29T21:50:01.704Z,10.00
2022-10-29T21:55:06.545Z,10.00
2022-10-29T22:00:11.038Z,10.40
2022-10-29T22:05:13.788Z,9.60
2022-10-29T22:10:17.953Z,9.40
2022-10-29T22:15:20.592Z,9.20
2022-10-29T22:20:23.296Z,10.00
2022-10-29T22:25:27.285Z,9.00
2022-10-29T22:30:29.939Z,11.00
2022-10-29T22:35:33.599Z,10.20
2022-10-29T22:40:41.731Z,9.00
2022-10-29T22:45:46.068Z,7.80
2022-10-29T22:50:48.719Z,9.00
2022-10-29T22:55:53.940Z,10.00
2022-10-29T23:01:03.460Z,10.00
2022-10-29T23:06:06.921Z,9.00
2022-10-29T23:11:12.843Z,10.00
2022-10-29T23:16:15.563Z,9.20
2022-10-29T23:21:18.465Z,9.80
2022-10-29T23:26:23.032Z,9.80
2022-10-29T23:31:26.563Z,9.00
2022-10-29T23:36:29.266Z,9.80
2022-10-29T23:41:33.250Z,8.00
2022-10-29T23:46:35.901Z,9.00
2022-10-29T23:51:38.708Z,9.00
2022-10-29T23:56:42.923Z,9.00
